Time;durP1;ratioP1;P1;durP2;ratioP2;P2;SDS_P1;SDS_P2;PMS_P1;PMS_P2;Temp;Humidity;BMP_temperature;BMP_pressure;BME280_temperature;BME280_humidity;BME280_pressure;Samples;Min_cycle;Max_cycle;Signal;HPM_P1;HPM_P2
2021/12/26 00:01:17;;;;;;;108.15;30.92;;;;;;;;;;4970318;28;20412;-64
2021/12/26 00:03:42;;;;;;;108.82;31.52;;;;;;;;;;4988577;28;20382;-63
2021/12/26 00:06:12;;;;;;;91.78;30.42;;;;;;;;;;4988150;28;20398;-63
2021/12/26 00:08:37;;;;;;;;;;;;;;;;;;4989048;28;20446;-64
2021/12/26 00:11:04;;;;;;;102.63;30.17;;;;;;;;;;4989240;28;19912;-63
2021/12/26 00:13:30;;;;;;;91.65;29.77;;;;;;;;;;4970651;28;20399;-64
2021/12/26 00:15:56;;;;;;;93.28;29.98;;;;;;;;;;4989308;28;20499;-64
2021/12/26 00:18:21;;;;;;;95.03;30.77;;;;;;;;;;4991484;28;20421;-65
2021/12/26 00:20:47;;;;;;;96.68;29.75;;;;;;;;;;4991518;28;20499;-63
2021/12/26 00:23:14;;;;;;;88.97;26.60;;;;;;;;;;4991851;28;20455;-65
2021/12/26 00:25:39;;;;;;;90.35;29.10;;;;;;;;;;4992997;28;20447;-63
2021/12/26 00:28:05;;;;;;;84.10;27.73;;;;;;;;;;4991568;28;20562;-64
2021/12/26 00:30:30;;;;;;;93.75;28.40;;;;;;;;;;4991236;28;20387;-64
2021/12/26 00:32:56;;;;;;;89.65;27.75;;;;;;;;;;4992904;28;20404;-63
2021/12/26 00:35:23;;;;;;;77.25;26.60;;;;;;;;;;4992537;28;20444;-64
2021/12/26 00:37:49;;;;;;;75.32;25.10;;;;;;;;;;4992265;28;20432;-63
2021/12/26 00:40:18;;;;;;;79.72;27.67;;;;;;;;;;4992144;28;20055;-64
2021/12/26 00:42:44;;;;;;;77.43;25.58;;;;;;;;;;4991269;28;20371;-64
2021/12/26 00:45:09;;;;;;;91.90;28.48;;;;;;;;;;4992025;28;20445;-63
2021/12/26 00:47:35;;;;;;;83.82;26.98;;;;;;;;;;4990755;28;20583;-63
2021/12/26 00:50:01;;;;;;;84.35;27.08;;;;;;;;;;4992088;28;20100;-63
2021/12/26 00:52:27;;;;;;;77.75;24.92;;;;;;;;;;4992301;28;20394;-64
2021/12/26 00:54:53;;;;;;;72.40;23.17;;;;;;;;;;4990712;28;20181;-63
2021/12/26 00:57:18;;;;;;;66.40;21.65;;;;;;;;;;4990760;28;20037;-64
2021/12/26 00:59:44;;;;;;;89.80;26.83;;;;;;;;;;4990483;28;20440;-63
2021/12/26 01:02:09;;;;;;;75.07;25.63;;;;;;;;;;4978235;28;20111;-63
2021/12/26 01:04:34;;;;;;;70.78;24.73;;;;;;;;;;4991299;28;20071;-64
2021/12/26 01:07:06;;;;;;;68.20;23.88;;;;;;;;;;4991678;28;20440;-64
2021/12/26 01:09:32;;;;;;;64.72;22.45;;;;;;;;;;4991154;28;20474;-63
2021/12/26 01:12:00;;;;;;;73.15;25.08;;;;;;;;;;4990726;28;20432;-64
2021/12/26 01:14:30;;;;;;;74.25;25.63;;;;;;;;;;4973627;28;20306;-63
2021/12/26 01:17:14;;;;;;;69.40;23.17;;;;;;;;;;4990557;28;20436;-64
2021/12/26 01:19:47;;;;;;;81.68;25.63;;;;;;;;;;4990891;28;20056;-65
2021/12/26 01:22:13;;;;;;;69.05;22.63;;;;;;;;;;4991005;28;20025;-63
2021/12/26 01:24:38;;;;;;;74.97;24.17;;;;;;;;;;4991804;28;20075;-63
2021/12/26 01:27:05;;;;;;;65.93;21.98;;;;;;;;;;4989996;28;20498;-65
2021/12/26 01:29:30;;;;;;;74.80;23.55;;;;;;;;;;4972254;28;20436;-64
2021/12/26 01:31:56;;;;;;;63.65;22.90;;;;;;;;;;4990125;28;20502;-63
2021/12/26 01:34:21;;;;;;;67.97;22.92;;;;;;;;;;4990090;28;20379;-64
2021/12/26 01:36:48;;;;;;;63.55;22.05;;;;;;;;;;4972423;28;20471;-64
2021/12/26 01:39:14;;;;;;;73.35;21.90;;;;;;;;;;4991079;28;20348;-63
2021/12/26 01:41:42;;;;;;;75.10;23.58;;;;;;;;;;4990499;28;20021;-64
2021/12/26 01:44:11;;;;;;;63.38;20.35;;;;;;;;;;4989923;28;20394;-65
2021/12/26 01:46:37;;;;;;;68.45;21.58;;;;;;;;;;4990008;28;20104;-63
2021/12/26 01:49:05;;;;;;;71.40;22.13;;;;;;;;;;4990572;28;20571;-63
2021/12/26 01:51:30;;;;;;;65.90;21.30;;;;;;;;;;4990235;28;20447;-63
2021/12/26 01:53:57;;;;;;;74.57;22.13;;;;;;;;;;4990709;28;20587;-63
2021/12/26 01:56:23;;;;;;;64.13;19.23;;;;;;;;;;4990038;28;20377;-63
2021/12/26 01:58:48;;;;;;;67.13;21.33;;;;;;;;;;4989645;28;20343;-64
2021/12/26 02:01:14;;;;;;;66.95;21.98;;;;;;;;;;4990260;28;20444;-64
2021/12/26 02:03:41;;;;;;;63.17;20.48;;;;;;;;;;4990031;28;20355;-63
2021/12/26 02:06:07;;;;;;;58.80;20.85;;;;;;;;;;4989589;28;20343;-63
2021/12/26 02:08:33;;;;;;;67.68;24.83;;;;;;;;;;4990637;28;20465;-64
2021/12/26 02:11:02;;;;;;;63.63;21.90;;;;;;;;;;4989210;28;20436;-63
2021/12/26 02:13:28;;;;;;;54.53;19.63;;;;;;;;;;4991074;28;20526;-63
2021/12/26 02:15:54;;;;;;;57.17;21.48;;;;;;;;;;4989566;28;20386;-63
2021/12/26 02:18:20;;;;;;;64.22;19.73;;;;;;;;;;4991275;28;20328;-64
2021/12/26 02:21:08;;;;;;;64.60;21.35;;;;;;;;;;4989449;28;20432;-64
2021/12/26 02:23:45;;;;;;;59.38;19.63;;;;;;;;;;4990241;28;20021;-63
2021/12/26 02:28:44;;;;;;;57.13;20.23;;;;;;;;;;4989074;28;20468;-64
2021/12/26 02:31:10;;;;;;;42.13;18.35;;;;;;;;;;4990134;28;20406;-63
2021/12/26 02:33:36;;;;;;;59.28;20.92;;;;;;;;;;4989607;28;20318;-63
2021/12/26 02:36:01;;;;;;;62.63;19.77;;;;;;;;;;4989474;28;20324;-63
2021/12/26 02:38:27;;;;;;;60.55;19.88;;;;;;;;;;4988671;28;20427;-64
2021/12/26 02:40:54;;;;;;;57.05;19.38;;;;;;;;;;4989574;28;20352;-63
2021/12/26 02:43:21;;;;;;;54.58;18.08;;;;;;;;;;4989202;28;20428;-63
2021/12/26 02:45:47;;;;;;;58.53;17.42;;;;;;;;;;4987600;28;20374;-63
2021/12/26 02:48:13;;;;;;;52.88;17.70;;;;;;;;;;4988686;28;20398;-64
2021/12/26 02:50:40;;;;;;;56.10;18.27;;;;;;;;;;4987605;28;20337;-63
2021/12/26 02:53:08;;;;;;;52.15;17.38;;;;;;;;;;4989105;28;20466;-63
2021/12/26 02:55:34;;;;;;;50.60;18.35;;;;;;;;;;4970932;28;20451;-63
2021/12/26 02:58:05;;;;;;;53.58;19.05;;;;;;;;;;4990459;28;20403;-63
2021/12/26 03:00:33;;;;;;;54.33;18.65;;;;;;;;;;4988250;28;20348;-64
2021/12/26 03:03:00;;;;;;;53.47;17.70;;;;;;;;;;4903910;28;20465;-63
2021/12/26 03:05:29;;;;;;;58.55;18.02;;;;;;;;;;4962134;28;20379;-67
2021/12/26 03:07:55;;;;;;;34.87;15.97;;;;;;;;;;4988868;28;20379;-63
2021/12/26 03:10:23;;;;;;;55.97;18.67;;;;;;;;;;4989260;28;20382;-63
2021/12/26 03:12:55;;;;;;;46.72;17.98;;;;;;;;;;4971127;28;20055;-64
2021/12/26 03:15:21;;;;;;;50.05;17.83;;;;;;;;;;4988338;28;20523;-63
2021/12/26 03:17:47;;;;;;;57.72;18.70;;;;;;;;;;4988690;28;20099;-63
2021/12/26 03:20:15;;;;;;;47.42;17.63;;;;;;;;;;4988924;28;20428;-63
2021/12/26 03:22:41;;;;;;;55.40;18.23;;;;;;;;;;4988474;28;20391;-63
2021/12/26 03:25:14;;;;;;;49.92;17.20;;;;;;;;;;4990517;28;20414;-64
2021/12/26 03:27:40;;;;;;;57.05;19.05;;;;;;;;;;4988423;28;20142;-64
2021/12/26 03:30:07;;;;;;;57.08;19.00;;;;;;;;;;4989261;28;20029;-63
2021/12/26 03:32:33;;;;;;;47.97;18.40;;;;;;;;;;4988186;28;20436;-64
2021/12/26 03:34:58;;;;;;;64.30;21.17;;;;;;;;;;4986926;28;20475;-64
2021/12/26 03:37:24;;;;;;;64.38;19.50;;;;;;;;;;4988382;28;20420;-63
2021/12/26 03:39:49;;;;;;;50.38;18.73;;;;;;;;;;4989490;28;20438;-64
2021/12/26 03:42:15;;;;;;;58.97;19.70;;;;;;;;;;4988352;28;20455;-63
2021/12/26 03:44:40;;;;;;;57.17;19.33;;;;;;;;;;4988560;28;20515;-63
2021/12/26 03:47:06;;;;;;;53.28;18.67;;;;;;;;;;4969862;28;20076;-63
2021/12/26 03:49:31;;;;;;;60.03;19.27;;;;;;;;;;4990523;28;20356;-66
2021/12/26 03:51:56;;;;;;;62.55;20.45;;;;;;;;;;4992124;28;20355;-63
2021/12/26 03:54:22;;;;;;;61.88;21.45;;;;;;;;;;4991065;28;20326;-63
2021/12/26 03:56:47;;;;;;;59.35;19.80;;;;;;;;;;4993262;28;20167;-63
2021/12/26 03:59:12;;;;;;;61.88;20.65;;;;;;;;;;4992206;28;20367;-63
2021/12/26 04:01:38;;;;;;;56.90;18.33;;;;;;;;;;4992027;28;20368;-63
2021/12/26 04:04:03;;;;;;;56.65;20.50;;;;;;;;;;4992472;28;20602;-63
2021/12/26 04:06:29;;;;;;;58.38;18.77;;;;;;;;;;4992182;28;20336;-63
2021/12/26 04:08:55;;;;;;;59.25;19.17;;;;;;;;;;4992017;28;20347;-64
2021/12/26 04:11:20;;;;;;;57.58;20.25;;;;;;;;;;4991371;28;20352;-63
2021/12/26 04:13:46;;;;;;;57.00;19.42;;;;;;;;;;4992787;28;20327;-64
2021/12/26 04:16:11;;;;;;;65.13;18.95;;;;;;;;;;4991403;28;20375;-63
2021/12/26 04:18:36;;;;;;;62.05;19.90;;;;;;;;;;4991695;28;20382;-63
2021/12/26 04:21:02;;;;;;;74.93;20.10;;;;;;;;;;4993064;28;20160;-64
2021/12/26 04:23:27;;;;;;;65.40;20.75;;;;;;;;;;4973916;28;20155;-63
2021/12/26 04:25:53;;;;;;;51.03;18.30;;;;;;;;;;4991338;28;20387;-63
2021/12/26 04:28:19;;;;;;;51.45;18.17;;;;;;;;;;4991630;28;20052;-63
2021/12/26 04:30:45;;;;;;;52.03;18.55;;;;;;;;;;4991275;28;20379;-63
2021/12/26 04:33:10;;;;;;;52.70;17.48;;;;;;;;;;4991902;28;20099;-63
2021/12/26 04:35:36;;;;;;;51.92;17.23;;;;;;;;;;4991310;28;20340;-63
2021/12/26 04:38:02;;;;;;;55.10;17.77;;;;;;;;;;4973507;28;20324;-63
2021/12/26 04:40:28;;;;;;;59.70;19.13;;;;;;;;;;4991906;28;20328;-63
2021/12/26 04:42:53;;;;;;;51.95;16.40;;;;;;;;;;4990842;28;20481;-64
2021/12/26 04:45:19;;;;;;;52.20;18.15;;;;;;;;;;4990825;28;20320;-63
2021/12/26 04:47:45;;;;;;;62.10;20.02;;;;;;;;;;4990716;28;20471;-63
2021/12/26 04:50:13;;;;;;;59.35;19.35;;;;;;;;;;4974157;28;20423;-65
2021/12/26 04:52:41;;;;;;;58.55;20.35;;;;;;;;;;4992117;28;20071;-63
2021/12/26 04:55:07;;;;;;;55.40;19.17;;;;;;;;;;4973395;28;20365;-63
2021/12/26 04:57:33;;;;;;;60.35;18.10;;;;;;;;;;4990787;28;20348;-63
2021/12/26 04:59:58;;;;;;;51.03;17.55;;;;;;;;;;4991263;28;20339;-63
2021/12/26 05:02:25;;;;;;;57.72;17.25;;;;;;;;;;4990153;28;20550;-65
2021/12/26 05:04:51;;;;;;;48.80;17.80;;;;;;;;;;4972960;28;20171;-64
2021/12/26 05:07:17;;;;;;;54.10;17.27;;;;;;;;;;4992424;28;20408;-64
2021/12/26 05:09:45;;;;;;;54.30;17.95;;;;;;;;;;4990806;28;20348;-63
2021/12/26 05:12:10;;;;;;;45.85;15.98;;;;;;;;;;4990376;28;20510;-63
2021/12/26 05:14:35;;;;;;;47.17;17.92;;;;;;;;;;4991086;28;20397;-65
2021/12/26 05:17:01;;;;;;;44.42;15.95;;;;;;;;;;4990967;28;20467;-65
2021/12/26 05:19:26;;;;;;;39.47;15.93;;;;;;;;;;4990596;28;20498;-63
2021/12/26 05:21:51;;;;;;;52.47;17.90;;;;;;;;;;4990287;28;20448;-63
2021/12/26 05:24:17;;;;;;;51.00;16.85;;;;;;;;;;4990430;28;20494;-63
2021/12/26 05:26:42;;;;;;;51.25;16.83;;;;;;;;;;4990251;28;20355;-63
2021/12/26 05:29:07;;;;;;;54.13;17.00;;;;;;;;;;4990298;28;20436;-63
2021/12/26 05:31:33;;;;;;;44.42;16.98;;;;;;;;;;4991557;28;20037;-63
2021/12/26 05:33:58;;;;;;;42.75;16.67;;;;;;;;;;4990088;28;20436;-64
2021/12/26 05:36:25;;;;;;;43.40;15.77;;;;;;;;;;4990249;28;20420;-63
2021/12/26 05:38:50;;;;;;;45.03;14.90;;;;;;;;;;4991385;28;20544;-64
2021/12/26 05:41:15;;;;;;;42.88;15.88;;;;;;;;;;4989934;28;20339;-63
2021/12/26 05:43:41;;;;;;;41.10;13.35;;;;;;;;;;4989835;28;20036;-63
2021/12/26 05:46:06;;;;;;;35.45;13.68;;;;;;;;;;4990022;28;20439;-63
2021/12/26 05:48:32;;;;;;;35.83;13.90;;;;;;;;;;4989265;28;20094;-64
2021/12/26 05:50:57;;;;;;;46.65;15.02;;;;;;;;;;4989679;28;20374;-63
2021/12/26 05:53:22;;;;;;;47.50;14.38;;;;;;;;;;4991109;28;20048;-64
2021/12/26 05:55:48;;;;;;;37.67;13.52;;;;;;;;;;4989947;28;20440;-63
2021/12/26 05:58:13;;;;;;;41.90;13.55;;;;;;;;;;4990281;28;20348;-64
2021/12/26 06:00:38;;;;;;;37.30;13.00;;;;;;;;;;4972108;28;20366;-64
2021/12/26 06:03:03;;;;;;;40.88;13.57;;;;;;;;;;4990175;28;20499;-63
2021/12/26 06:05:29;;;;;;;32.67;12.20;;;;;;;;;;4990597;28;20385;-63
2021/12/26 06:07:54;;;;;;;40.00;12.63;;;;;;;;;;4991236;28;20424;-63
2021/12/26 06:10:19;;;;;;;50.47;13.15;;;;;;;;;;4989947;28;20423;-63
2021/12/26 06:12:45;;;;;;;41.10;13.23;;;;;;;;;;4988573;28;20415;-63
2021/12/26 06:15:12;;;;;;;30.65;10.63;;;;;;;;;;4989144;28;20057;-63
2021/12/26 06:17:38;;;;;;;35.50;12.93;;;;;;;;;;4989738;28;20440;-63
2021/12/26 06:20:05;;;;;;;36.47;12.63;;;;;;;;;;4989997;28;20479;-64
2021/12/26 06:22:30;;;;;;;38.35;11.35;;;;;;;;;;4989110;28;20325;-63
2021/12/26 06:24:55;;;;;;;38.40;12.55;;;;;;;;;;4991314;28;20033;-65
2021/12/26 06:27:20;;;;;;;30.30;11.38;;;;;;;;;;4989520;28;20454;-62
2021/12/26 06:29:46;;;;;;;32.42;12.00;;;;;;;;;;4989258;28;20457;-64
2021/12/26 06:32:11;;;;;;;45.10;13.38;;;;;;;;;;4988806;28;20420;-63
2021/12/26 06:34:36;;;;;;;32.65;11.70;;;;;;;;;;4989579;28;20386;-64
2021/12/26 06:37:02;;;;;;;24.48;10.45;;;;;;;;;;4988808;28;20452;-63
2021/12/26 06:39:27;;;;;;;30.75;10.95;;;;;;;;;;4989026;28;20482;-63
2021/12/26 06:41:53;;;;;;;32.80;10.55;;;;;;;;;;4988642;28;20440;-63
2021/12/26 06:44:18;;;;;;;33.65;10.52;;;;;;;;;;4989622;28;20102;-63
2021/12/26 06:46:43;;;;;;;25.15;9.50;;;;;;;;;;4988845;28;20461;-63
2021/12/26 06:49:09;;;;;;;30.92;10.85;;;;;;;;;;4988721;28;20360;-63
2021/12/26 06:51:34;;;;;;;28.73;11.30;;;;;;;;;;4988507;28;20055;-63
2021/12/26 06:53:59;;;;;;;32.58;11.60;;;;;;;;;;4988390;28;20329;-63
2021/12/26 06:56:25;;;;;;;36.17;11.48;;;;;;;;;;4989066;28;20454;-63
2021/12/26 06:58:50;;;;;;;31.25;9.45;;;;;;;;;;4988836;28;20519;-63
2021/12/26 07:01:15;;;;;;;30.95;10.93;;;;;;;;;;4989027;28;20412;-63
2021/12/26 07:03:41;;;;;;;30.75;10.70;;;;;;;;;;4970514;28;20347;-64
2021/12/26 07:06:06;;;;;;;32.15;10.50;;;;;;;;;;4990257;28;20456;-64
2021/12/26 07:08:32;;;;;;;28.08;10.88;;;;;;;;;;4988524;28;20448;-63
2021/12/26 07:10:58;;;;;;;30.88;12.32;;;;;;;;;;4988784;28;20380;-62
2021/12/26 07:13:23;;;;;;;30.55;10.10;;;;;;;;;;4989292;28;20297;-64
2021/12/26 07:15:48;;;;;;;30.88;10.18;;;;;;;;;;4988457;28;20377;-63
2021/12/26 07:18:14;;;;;;;23.45;9.63;;;;;;;;;;4988326;28;20455;-63
2021/12/26 07:20:39;;;;;;;26.90;11.00;;;;;;;;;;4988846;28;20421;-64
2021/12/26 07:23:05;;;;;;;32.22;10.18;;;;;;;;;;4988276;28;20449;-63
2021/12/26 07:25:30;;;;;;;29.67;10.70;;;;;;;;;;4989667;28;20032;-62
2021/12/26 07:27:56;;;;;;;33.92;11.07;;;;;;;;;;4992537;28;20390;-64
2021/12/26 07:30:21;;;;;;;27.65;10.95;;;;;;;;;;4994018;28;20391;-63
2021/12/26 07:32:46;;;;;;;29.10;10.75;;;;;;;;;;4992623;28;20420;-63
2021/12/26 07:35:12;;;;;;;28.80;11.05;;;;;;;;;;4993947;28;20094;-64
2021/12/26 07:37:37;;;;;;;28.85;10.32;;;;;;;;;;4992289;28;20443;-63
2021/12/26 07:40:04;;;;;;;33.97;12.50;;;;;;;;;;4992449;28;20543;-63
2021/12/26 07:42:30;;;;;;;32.35;14.57;;;;;;;;;;4991958;28;20047;-63
2021/12/26 07:44:55;;;;;;;28.08;11.95;;;;;;;;;;4992263;28;20034;-63
2021/12/26 07:47:20;;;;;;;27.27;10.98;;;;;;;;;;4991615;28;20069;-63
2021/12/26 07:49:45;;;;;;;31.65;11.60;;;;;;;;;;4992026;28;20321;-64
2021/12/26 07:52:15;;;;;;;31.58;11.52;;;;;;;;;;4992473;28;20041;-65
2021/12/26 07:54:42;;;;;;;31.15;11.95;;;;;;;;;;4993238;28;20437;-63
2021/12/26 07:57:07;;;;;;;31.10;11.85;;;;;;;;;;4991903;28;20348;-64
2021/12/26 07:59:34;;;;;;;27.33;11.73;;;;;;;;;;4991832;28;20362;-63
2021/12/26 08:02:00;;;;;;;28.50;11.13;;;;;;;;;;4991883;28;20029;-64
2021/12/26 08:04:27;;;;;;;32.90;12.38;;;;;;;;;;4992196;28;20047;-65
2021/12/26 08:06:53;;;;;;;34.78;12.38;;;;;;;;;;4991612;28;20359;-65
2021/12/26 08:09:18;;;;;;;30.65;12.55;;;;;;;;;;4991693;28;20328;-63
2021/12/26 08:11:43;;;;;;;24.73;10.82;;;;;;;;;;4992207;28;20345;-64
2021/12/26 08:14:09;;;;;;;32.85;11.52;;;;;;;;;;4991736;28;20454;-63
2021/12/26 08:16:34;;;;;;;31.88;12.80;;;;;;;;;;4991682;28;20402;-63
2021/12/26 08:19:01;;;;;;;35.95;11.25;;;;;;;;;;4992847;28;20424;-63
2021/12/26 08:21:26;;;;;;;25.08;10.52;;;;;;;;;;4991528;28;20351;-63
2021/12/26 08:23:51;;;;;;;27.92;12.45;;;;;;;;;;4992053;28;20337;-63
2021/12/26 08:26:17;;;;;;;27.17;10.73;;;;;;;;;;4990231;28;20508;-64
2021/12/26 08:28:42;;;;;;;30.95;10.13;;;;;;;;;;4991964;28;20507;-63
2021/12/26 08:31:09;;;;;;;26.95;11.40;;;;;;;;;;4991995;28;20391;-64
2021/12/26 08:33:35;;;;;;;32.05;10.75;;;;;;;;;;4991419;28;20029;-64
2021/12/26 08:36:01;;;;;;;28.55;10.68;;;;;;;;;;4989997;28;20051;-64
2021/12/26 08:38:26;;;;;;;23.42;10.13;;;;;;;;;;4991869;28;20416;-64
2021/12/26 08:40:54;;;;;;;28.02;12.32;;;;;;;;;;4991511;28;20382;-64
2021/12/26 08:43:19;;;;;;;34.03;10.70;;;;;;;;;;4991594;28;20341;-64
2021/12/26 08:45:46;;;;;;;31.75;12.32;;;;;;;;;;4990970;28;20416;-64
2021/12/26 08:48:11;;;;;;;27.08;10.07;;;;;;;;;;4990681;28;20368;-64
2021/12/26 08:50:37;;;;;;;24.42;10.60;;;;;;;;;;4992453;28;20033;-64
2021/12/26 08:53:03;;;;;;;28.60;10.52;;;;;;;;;;4989189;28;20451;-64
2021/12/26 08:55:31;;;;;;;25.85;10.50;;;;;;;;;;4992067;28;20461;-64
2021/12/26 08:57:58;;;;;;;34.88;11.02;;;;;;;;;;4990814;28;20511;-63
2021/12/26 09:00:23;;;;;;;34.88;11.68;;;;;;;;;;4990924;28;20440;-63
2021/12/26 09:02:50;;;;;;;33.17;12.57;;;;;;;;;;4991584;28;20471;-64
2021/12/26 09:05:15;;;;;;;24.27;10.02;;;;;;;;;;4990611;28;20463;-63
2021/12/26 09:07:41;;;;;;;36.13;11.82;;;;;;;;;;4990888;28;20461;-64
2021/12/26 09:10:08;;;;;;;29.70;9.77;;;;;;;;;;4990307;28;20351;-64
2021/12/26 09:12:34;;;;;;;33.58;12.30;;;;;;;;;;4991571;28;20460;-63
2021/12/26 09:14:59;;;;;;;28.58;11.60;;;;;;;;;;4990512;28;20476;-63
2021/12/26 09:17:25;;;;;;;27.67;11.30;;;;;;;;;;4990869;28;20412;-64
2021/12/26 09:19:50;;;;;;;28.67;10.45;;;;;;;;;;4991097;28;20110;-63
2021/12/26 09:22:17;;;;;;;28.95;10.95;;;;;;;;;;4972596;28;20329;-64
2021/12/26 09:24:43;;;;;;;22.05;8.93;;;;;;;;;;4991236;28;20305;-63
2021/12/26 09:27:09;;;;;;;30.85;11.45;;;;;;;;;;4990542;28;20399;-63
2021/12/26 09:29:34;;;;;;;22.70;9.65;;;;;;;;;;4972665;28;20321;-63
2021/12/26 09:32:02;;;;;;;25.17;10.55;;;;;;;;;;4990498;28;20436;-63
2021/12/26 09:34:29;;;;;;;24.42;10.52;;;;;;;;;;4990518;28;20352;-63
2021/12/26 09:36:55;;;;;;;34.33;10.70;;;;;;;;;;4990609;28;20333;-63
2021/12/26 09:39:22;;;;;;;24.65;10.02;;;;;;;;;;4988730;28;20407;-63
2021/12/26 09:41:51;;;;;;;30.30;10.10;;;;;;;;;;4990049;28;20344;-63
2021/12/26 09:44:17;;;;;;;31.30;9.88;;;;;;;;;;4990936;28;20486;-64
2021/12/26 09:46:43;;;;;;;26.33;10.30;;;;;;;;;;4990917;28;20528;-63
2021/12/26 09:49:09;;;;;;;26.80;9.70;;;;;;;;;;4971937;28;20448;-63
2021/12/26 09:51:34;;;;;;;25.33;9.80;;;;;;;;;;4990829;28;20502;-63
2021/12/26 09:54:04;;;;;;;25.38;9.52;;;;;;;;;;4990054;28;20480;-63
2021/12/26 09:56:29;;;;;;;32.95;11.70;;;;;;;;;;4990437;28;20451;-64
2021/12/26 09:59:04;;;;;;;29.27;12.18;;;;;;;;;;4988847;28;20468;-63
2021/12/26 10:01:37;;;;;;;24.60;10.90;;;;;;;;;;4990310;28;20394;-64
2021/12/26 10:04:24;;;;;;;24.23;10.43;;;;;;;;;;4990121;28;20494;-63
2021/12/26 10:07:11;;;;;;;28.65;11.70;;;;;;;;;;4989408;28;20351;-63
2021/12/26 10:09:38;;;;;;;27.40;12.10;;;;;;;;;;4989752;28;20427;-63
2021/12/26 10:12:04;;;;;;;29.98;12.65;;;;;;;;;;4989435;28;20478;-63
2021/12/26 10:14:33;;;;;;;29.13;11.63;;;;;;;;;;4971588;28;20051;-63
2021/12/26 10:17:26;;;;;;;26.90;11.88;;;;;;;;;;4990116;28;20454;-64
2021/12/26 10:19:52;;;;;;;25.55;12.15;;;;;;;;;;4989576;28;20440;-64
2021/12/26 10:22:28;;;;;;;35.88;13.32;;;;;;;;;;4990296;28;20316;-64
2021/12/26 10:24:55;;;;;;;31.42;11.90;;;;;;;;;;4989786;28;20428;-64
2021/12/26 10:27:23;;;;;;;26.45;12.15;;;;;;;;;;4989649;28;20467;-63
2021/12/26 10:29:52;;;;;;;23.33;11.60;;;;;;;;;;4990970;28;20417;-64
2021/12/26 10:32:18;;;;;;;28.63;12.13;;;;;;;;;;4987943;28;20364;-63
2021/12/26 10:34:46;;;;;;;26.55;11.00;;;;;;;;;;4989274;28;20050;-64
2021/12/26 10:37:16;;;;;;;28.80;11.43;;;;;;;;;;4989149;28;20436;-64
2021/12/26 10:39:53;;;;;;;28.40;10.93;;;;;;;;;;4989720;28;20589;-63
2021/12/26 10:42:29;;;;;;;25.65;10.18;;;;;;;;;;4989732;28;20432;-64
2021/12/26 10:44:58;;;;;;;27.08;11.07;;;;;;;;;;4989323;28;20167;-64
2021/12/26 10:47:26;;;;;;;23.43;10.63;;;;;;;;;;4988979;28;20418;-63
2021/12/26 10:49:58;;;;;;;24.15;9.95;;;;;;;;;;4987632;28;20135;-64
2021/12/26 10:52:25;;;;;;;28.95;11.25;;;;;;;;;;4989343;28;20432;-64
2021/12/26 10:54:53;;;;;;;26.83;10.98;;;;;;;;;;4989599;28;20519;-64
2021/12/26 10:57:27;;;;;;;26.92;10.85;;;;;;;;;;4988947;28;20545;-63
2021/12/26 11:00:06;;;;;;;28.60;11.23;;;;;;;;;;4989037;28;20424;-64
2021/12/26 11:02:32;;;;;;;22.17;9.95;;;;;;;;;;4988866;28;20407;-64
2021/12/26 11:05:16;;;;;;;22.08;9.52;;;;;;;;;;4989161;28;20425;-64
2021/12/26 11:07:56;;;;;;;21.85;10.23;;;;;;;;;;4988931;28;20447;-64
2021/12/26 11:10:33;;;;;;;22.30;9.00;;;;;;;;;;4988853;28;20378;-64
2021/12/26 11:13:00;;;;;;;23.50;10.35;;;;;;;;;;4990400;28;20435;-64
2021/12/26 11:15:30;;;;;;;23.23;11.32;;;;;;;;;;4989898;28;20332;-66
2021/12/26 11:17:58;;;;;;;25.83;9.70;;;;;;;;;;4971410;28;20455;-64
2021/12/26 11:20:29;;;;;;;25.05;10.15;;;;;;;;;;4988757;28;20053;-64
2021/12/26 11:22:55;;;;;;;18.08;8.18;;;;;;;;;;4970908;28;20382;-65
2021/12/26 11:25:22;;;;;;;22.13;8.95;;;;;;;;;;4989753;28;20419;-64
2021/12/26 11:27:47;;;;;;;24.42;10.00;;;;;;;;;;4988936;28;20441;-64
2021/12/26 11:30:13;;;;;;;25.00;9.68;;;;;;;;;;4988968;28;20490;-64
2021/12/26 11:32:39;;;;;;;24.50;9.77;;;;;;;;;;4971701;28;20440;-64
2021/12/26 11:35:05;;;;;;;27.13;10.60;;;;;;;;;;4988671;28;20044;-64
2021/12/26 11:37:31;;;;;;;20.88;9.45;;;;;;;;;;4988760;28;20309;-64
2021/12/26 11:39:57;;;;;;;26.55;9.80;;;;;;;;;;4971086;28;20432;-64
2021/12/26 11:42:42;;;;;;;25.58;9.52;;;;;;;;;;4989840;28;20439;-64
2021/12/26 11:45:11;;;;;;;24.48;10.18;;;;;;;;;;4988774;28;20294;-64
2021/12/26 11:48:09;;;;;;;17.75;8.88;;;;;;;;;;4988468;28;20518;-64
2021/12/26 11:50:49;;;;;;;24.83;9.23;;;;;;;;;;4972945;28;20452;-64
2021/12/26 11:53:26;;;;;;;25.17;9.38;;;;;;;;;;4954676;28;20032;-64
2021/12/26 11:56:08;;;;;;;20.95;8.77;;;;;;;;;;4988722;28;20037;-64
2021/12/26 11:58:45;;;;;;;18.42;8.80;;;;;;;;;;4971660;28;20383;-65
2021/12/26 12:01:15;;;;;;;23.05;8.23;;;;;;;;;;4988559;28;20411;-64
2021/12/26 12:03:41;;;;;;;19.13;8.85;;;;;;;;;;4970883;28;20511;-64
2021/12/26 12:06:06;;;;;;;15.25;6.97;;;;;;;;;;4989718;28;20442;-64
2021/12/26 12:08:34;;;;;;;18.10;7.78;;;;;;;;;;4988724;28;20444;-64
2021/12/26 12:11:02;;;;;;;22.27;8.27;;;;;;;;;;4990132;28;20452;-63
2021/12/26 12:13:48;;;;;;;16.95;7.53;;;;;;;;;;4992228;28;20428;-63
2021/12/26 12:16:23;;;;;;;16.13;7.88;;;;;;;;;;4992690;28;20347;-66
2021/12/26 12:18:48;;;;;;;19.33;8.10;;;;;;;;;;4994141;28;20328;-65
2021/12/26 12:21:15;;;;;;;22.60;8.55;;;;;;;;;;4992105;28;20422;-64
2021/12/26 12:24:03;;;;;;;17.92;7.43;;;;;;;;;;4992072;28;20463;-64
2021/12/26 12:26:51;;;;;;;22.05;8.35;;;;;;;;;;4992241;28;20119;-64
2021/12/26 12:29:28;;;;;;;19.67;7.32;;;;;;;;;;4991740;28;20450;-64
2021/12/26 12:32:08;;;;;;;19.88;7.38;;;;;;;;;;4991848;28;20516;-64
2021/12/26 12:35:05;;;;;;;16.88;7.55;;;;;;;;;;4991581;28;20099;-64
2021/12/26 12:37:34;;;;;;;15.60;6.88;;;;;;;;;;4971656;28;20115;-64
2021/12/26 12:40:12;;;;;;;18.80;7.68;;;;;;;;;;4992233;28;20443;-64
2021/12/26 12:42:39;;;;;;;13.80;6.72;;;;;;;;;;4991327;28;20305;-64
2021/12/26 12:45:05;;;;;;;20.02;8.40;;;;;;;;;;4974425;28;20347;-64
2021/12/26 12:47:30;;;;;;;17.02;7.78;;;;;;;;;;4991390;28;20363;-64
2021/12/26 12:50:02;;;;;;;15.88;8.43;;;;;;;;;;4991354;28;20111;-64
2021/12/26 12:52:40;;;;;;;16.30;6.90;;;;;;;;;;4991560;28;20049;-64
2021/12/26 12:55:15;;;;;;;16.75;6.72;;;;;;;;;;4991789;28;20064;-64
2021/12/26 12:57:44;;;;;;;15.50;6.38;;;;;;;;;;4991165;28;20468;-63
2021/12/26 13:00:21;;;;;;;17.75;7.35;;;;;;;;;;4991506;28;20017;-64
2021/12/26 13:02:47;;;;;;;13.85;6.75;;;;;;;;;;4991230;28;20467;-64
2021/12/26 13:05:12;;;;;;;18.33;6.07;;;;;;;;;;4991195;28;20364;-64
2021/12/26 13:07:37;;;;;;;14.43;5.72;;;;;;;;;;4990835;28;20025;-64
2021/12/26 13:10:12;;;;;;;14.90;6.20;;;;;;;;;;4991350;28;20021;-64
2021/12/26 13:12:37;;;;;;;14.90;6.13;;;;;;;;;;4973328;28;20343;-63
2021/12/26 13:15:03;;;;;;;16.30;6.07;;;;;;;;;;4973144;28;20047;-64
2021/12/26 13:17:30;;;;;;;16.08;6.75;;;;;;;;;;4990920;28;20333;-63
2021/12/26 13:20:00;;;;;;;16.73;6.25;;;;;;;;;;4990981;28;20508;-63
2021/12/26 13:22:38;;;;;;;14.80;6.05;;;;;;;;;;4990102;28;20029;-63
2021/12/26 13:25:05;;;;;;;12.27;5.65;;;;;;;;;;4991147;28;20462;-63
2021/12/26 13:27:30;;;;;;;12.32;4.63;;;;;;;;;;4991724;28;20335;-63
2021/12/26 13:29:56;;;;;;;11.43;5.93;;;;;;;;;;4973735;28;20336;-63
2021/12/26 13:32:21;;;;;;;13.63;5.57;;;;;;;;;;4990328;28;20444;-64
2021/12/26 13:34:54;;;;;;;13.60;6.72;;;;;;;;;;4990453;28;20367;-63
2021/12/26 13:37:20;;;;;;;15.63;7.07;;;;;;;;;;4990445;28;20103;-64
2021/12/26 13:39:53;;;;;;;25.10;7.35;;;;;;;;;;4990362;28;20029;-64
2021/12/26 13:42:18;;;;;;;15.30;6.85;;;;;;;;;;4972722;28;20440;-64
2021/12/26 13:44:43;;;;;;;19.48;6.78;;;;;;;;;;4990182;28;20459;-63
2021/12/26 13:47:09;;;;;;;24.35;8.02;;;;;;;;;;4990368;28;20475;-64
2021/12/26 13:49:34;;;;;;;27.13;8.98;;;;;;;;;;4991099;28;20324;-65
2021/12/26 13:52:01;;;;;;;19.58;7.72;;;;;;;;;;4990002;28;20387;-64
2021/12/26 13:54:38;;;;;;;26.05;8.50;;;;;;;;;;4989872;28;20436;-64
2021/12/26 13:57:06;;;;;;;19.67;8.00;;;;;;;;;;4991603;28;20407;-63
2021/12/26 13:59:38;;;;;;;25.50;7.43;;;;;;;;;;4990243;28;20336;-64
2021/12/26 14:02:15;;;;;;;16.50;8.02;;;;;;;;;;4990838;28;20076;-64
2021/12/26 14:04:44;;;;;;;18.63;6.60;;;;;;;;;;4988706;28;20631;-63
2021/12/26 14:07:12;;;;;;;13.73;5.97;;;;;;;;;;4989990;28;20416;-67
2021/12/26 14:09:39;;;;;;;17.40;6.88;;;;;;;;;;4989902;28;20412;-63
2021/12/26 14:12:05;;;;;;;15.48;6.20;;;;;;;;;;4990612;28;20383;-64
2021/12/26 14:14:35;;;;;;;15.32;6.50;;;;;;;;;;4971893;28;20087;-63
2021/12/26 14:17:08;;;;;;;15.20;6.18;;;;;;;;;;4990736;28;20327;-63
2021/12/26 14:19:34;;;;;;;12.00;6.57;;;;;;;;;;4989729;28;20321;-63
2021/12/26 14:22:00;;;;;;;15.05;6.13;;;;;;;;;;4971702;28;20581;-63
2021/12/26 14:24:25;;;;;;;15.15;5.53;;;;;;;;;;4989868;28;20522;-64
2021/12/26 14:26:52;;;;;;;17.30;5.65;;;;;;;;;;4989317;28;20450;-63